createdAt,value
2023-05-14T00:03:00.498Z,100274.47
2023-05-14T00:08:04.844Z,100270.19
2023-05-14T00:13:09.602Z,100267.72
2023-05-14T00:18:13.174Z,100267.00
2023-05-14T00:23:16.824Z,100269.06
2023-05-14T00:28:21.859Z,100270.31
2023-05-14T00:33:25.242Z,100271.56
2023-05-14T00:38:28.902Z,100275.53
2023-05-14T00:43:34.154Z,100282.84
2023-05-14T00:48:37.774Z,100280.56
2023-05-14T00:53:41.550Z,100283.59
2023-05-14T00:58:46.386Z,100290.13
2023-05-14T01:03:53.506Z,100286.94
2023-05-14T01:09:07.537Z,100288.13
2023-05-14T01:14:22.812Z,100290.19
2023-05-14T01:19:34.916Z,100289.59
2023-05-14T01:24:39.935Z,100293.41
2023-05-14T01:29:46.691Z,100299.00
2023-05-14T01:34:51.854Z,100304.34
2023-05-14T01:39:58.066Z,100309.75
2023-05-14T01:45:02.219Z,100319.53
2023-05-14T01:50:08.807Z,100313.38
2023-05-14T01:55:13.974Z,100318.66
2023-05-14T02:00:17.990Z,100316.81
2023-05-14T02:05:21.510Z,100319.34
2023-05-14T02:10:26.485Z,100320.94
2023-05-14T02:15:30.158Z,100318.94
2023-05-14T02:20:33.748Z,100325.66
2023-05-14T02:25:39.329Z,100328.84
2023-05-14T02:30:42.919Z,100324.03
2023-05-14T02:35:46.450Z,100335.03
2023-05-14T02:40:51.670Z,100335.44
2023-05-14T02:45:55.197Z,100343.72
2023-05-14T02:50:58.615Z,100343.84
2023-05-14T02:56:03.489Z,100344.09
2023-05-14T03:01:07.377Z,100344.44
2023-05-14T03:06:11.390Z,100349.00
2023-05-14T03:11:18.940Z,100350.94
2023-05-14T03:16:22.334Z,100349.34
2023-05-14T03:21:26.261Z,100353.94
2023-05-14T03:26:31.047Z,100366.56
2023-05-14T03:31:34.562Z,100368.41
2023-05-14T03:36:39.089Z,100379.16
2023-05-14T03:41:43.958Z,100380.16
2023-05-14T03:46:47.380Z,100369.63
2023-05-14T03:51:51.464Z,100377.69
2023-05-14T03:56:56.358Z,100373.34
2023-05-14T04:02:00.076Z,100371.56
2023-05-14T04:07:03.584Z,100375.16
2023-05-14T04:12:10.722Z,100375.91
2023-05-14T04:17:14.448Z,100375.09
2023-05-14T04:22:17.811Z,100378.63
2023-05-14T04:27:23.229Z,100370.66
2023-05-14T04:32:26.994Z,100377.81
2023-05-14T04:37:31.077Z,100371.63
2023-05-14T04:42:35.989Z,100377.34
2023-05-14T04:47:39.740Z,100376.50
2023-05-14T04:52:43.326Z,100380.72
2023-05-14T04:57:48.112Z,100385.94
2023-05-14T05:02:51.556Z,100385.88
2023-05-14T05:07:55.388Z,100387.69
2023-05-14T05:13:00.242Z,100380.16
2023-05-14T05:18:04.012Z,100380.94
2023-05-14T05:23:07.899Z,100386.09
2023-05-14T05:28:12.863Z,100382.31
2023-05-14T05:33:16.333Z,100383.84
2023-05-14T05:38:20.101Z,100379.19
2023-05-14T05:43:25.188Z,100379.78
2023-05-14T05:48:28.622Z,100370.25
2023-05-14T05:53:32.080Z,100365.63
2023-05-14T05:58:37.284Z,100361.34
2023-05-14T06:03:40.909Z,100365.41
2023-05-14T06:08:44.354Z,100365.59
2023-05-14T06:13:49.245Z,100360.03
2023-05-14T06:18:54.589Z,100367.53
2023-05-14T06:23:58.045Z,100371.38
2023-05-14T06:29:02.883Z,100368.28
2023-05-14T06:34:06.307Z,100362.75
2023-05-14T06:39:10.115Z,100358.63
2023-05-14T06:44:15.000Z,100354.28
2023-05-14T06:49:18.503Z,100353.28
2023-05-14T06:54:22.044Z,100354.69
2023-05-14T06:59:26.998Z,100353.56
2023-05-14T07:04:30.443Z,100359.19
2023-05-14T07:09:34.069Z,100351.31
2023-05-14T07:14:39.022Z,100357.34
2023-05-14T07:19:42.425Z,100361.50
2023-05-14T07:24:46.036Z,100363.66
2023-05-14T07:29:52.644Z,100368.00
2023-05-14T07:34:56.118Z,100361.97
2023-05-14T07:39:59.720Z,100372.16
2023-05-14T07:45:04.846Z,100367.47
2023-05-14T07:50:11.862Z,100366.84
2023-05-14T07:55:15.287Z,100369.06
2023-05-14T08:00:20.842Z,100384.88
2023-05-14T08:05:24.668Z,100375.66
2023-05-14T08:10:28.832Z,100354.72
2023-05-14T08:15:33.963Z,100346.91
2023-05-14T08:20:37.343Z,100361.69
2023-05-14T08:25:40.656Z,100358.13
2023-05-14T08:30:46.055Z,100359.66
2023-05-14T08:35:51.461Z,100354.50
2023-05-14T08:40:58.977Z,100345.06
2023-05-14T08:46:07.394Z,100345.91
2023-05-14T08:51:11.048Z,100322.91
2023-05-14T08:56:16.587Z,100329.59
2023-05-14T09:01:22.079Z,100337.31
2023-05-14T09:06:26.912Z,100349.72
2023-05-14T09:11:30.337Z,100357.94
2023-05-14T09:16:38.017Z,100360.22
2023-05-14T09:21:42.180Z,100350.44
2023-05-14T09:26:45.763Z,100353.34
2023-05-14T09:31:52.402Z,100320.28
2023-05-14T09:36:59.488Z,100308.56
2023-05-14T09:42:03.914Z,100305.91
2023-05-14T09:47:09.806Z,100318.94
2023-05-14T09:52:13.509Z,100332.69
2023-05-14T09:57:16.893Z,100342.25
2023-05-14T10:02:25.941Z,100352.31
2023-05-14T10:07:35.168Z,100345.31
2023-05-14T10:12:48.619Z,100334.63
2023-05-14T10:17:57.796Z,100314.56
2023-05-14T10:23:02.337Z,100340.88
2023-05-14T10:28:07.209Z,100334.72
2023-05-14T10:33:14.617Z,100338.19
2023-05-14T10:38:18.329Z,100335.16
2023-05-14T10:43:22.656Z,100316.25
2023-05-14T10:48:28.282Z,100310.41
2023-05-14T10:53:34.755Z,100304.69
2023-05-14T10:58:39.363Z,100302.72
2023-05-14T11:03:46.421Z,100301.00
2023-05-14T11:08:52.952Z,100314.25
2023-05-14T11:13:57.517Z,100312.31
2023-05-14T11:19:06.783Z,100322.38
2023-05-14T11:24:10.450Z,100322.44
2023-05-14T11:29:14.061Z,100323.09
2023-05-14T11:34:19.143Z,100322.88
2023-05-14T11:39:22.458Z,100313.38
2023-05-14T11:44:26.276Z,100305.47
2023-05-14T11:49:31.216Z,100305.09
2023-05-14T11:54:35.601Z,100312.53
2023-05-14T11:59:39.678Z,100308.69
2023-05-14T12:04:45.134Z,100297.00
2023-05-14T12:09:50.041Z,100292.28
2023-05-14T12:14:53.906Z,100291.00
2023-05-14T12:19:59.109Z,100306.97
2023-05-14T12:25:02.614Z,100307.03
2023-05-14T12:35:17.245Z,100312.50
2023-05-14T12:40:20.984Z,100309.91
2023-05-14T12:45:25.097Z,100317.13
2023-05-14T12:50:30.594Z,100318.28
2023-05-14T12:55:34.728Z,100311.38
2023-05-14T13:00:38.287Z,100307.84
2023-05-14T13:05:43.199Z,100310.59
2023-05-14T13:10:46.770Z,100305.06
2023-05-14T13:15:50.691Z,100306.56
2023-05-14T13:20:55.569Z,100310.38
2023-05-14T13:25:59.480Z,100320.72
2023-05-14T13:31:08.130Z,100329.97
2023-05-14T13:36:14.719Z,100326.56
2023-05-14T13:41:18.252Z,100331.97
2023-05-14T13:46:21.784Z,100330.59
2023-05-14T13:51:26.755Z,100322.41
2023-05-14T13:56:30.573Z,100320.66
2023-05-14T14:01:34.282Z,100305.19
2023-05-14T14:06:39.284Z,100289.88
2023-05-14T14:11:43.169Z,100289.19
2023-05-14T14:16:46.636Z,100291.44
2023-05-14T14:26:59.853Z,100318.16
2023-05-14T14:32:04.081Z,100333.75
2023-05-14T14:37:09.239Z,100326.91
2023-05-14T14:42:12.661Z,100323.69
2023-05-14T14:47:16.506Z,100332.81
2023-05-14T14:52:21.289Z,100329.06
2023-05-14T14:57:24.809Z,100304.00
2023-05-14T15:02:28.311Z,100307.06
2023-05-14T15:07:33.524Z,100309.38
2023-05-14T15:12:37.306Z,100318.09
2023-05-14T15:17:40.906Z,100330.25
2023-05-14T15:22:46.152Z,100321.50
2023-05-14T15:27:49.833Z,100324.00
2023-05-14T15:32:53.689Z,100326.09
2023-05-14T15:37:58.631Z,100337.13
2023-05-14T15:43:02.296Z,100340.47
2023-05-14T15:48:06.250Z,100340.34
2023-05-14T15:53:11.210Z,100352.03
2023-05-14T15:58:14.775Z,100344.34
2023-05-14T16:03:18.905Z,100354.78
2023-05-14T16:08:23.968Z,100346.16
2023-05-14T16:13:27.625Z,100345.22
2023-05-14T16:18:31.230Z,100344.09
2023-05-14T16:23:36.122Z,100342.28
2023-05-14T16:28:41.439Z,100347.09
2023-05-14T16:33:45.025Z,100347.53
2023-05-14T16:39:06.670Z,100354.25
2023-05-14T16:44:11.113Z,100356.72
2023-05-14T16:49:14.784Z,100361.84
2023-05-14T16:54:19.521Z,100381.63
2023-05-14T16:59:22.894Z,100385.25
2023-05-14T17:04:26.751Z,100386.03
2023-05-14T17:09:32.095Z,100393.56
2023-05-14T17:14:35.540Z,100396.31
2023-05-14T17:19:39.044Z,100397.31
2023-05-14T17:24:43.941Z,100398.75
2023-05-14T17:29:49.423Z,100396.84
2023-05-14T17:34:52.999Z,100402.13
2023-05-14T17:39:57.792Z,100411.06
2023-05-14T17:45:03.139Z,100416.38
2023-05-14T17:50:10.073Z,100422.69
2023-05-14T17:55:15.357Z,100434.16
2023-05-14T18:00:19.382Z,100435.66
2023-05-14T18:05:23.135Z,100438.03
2023-05-14T18:10:29.732Z,100425.09
2023-05-14T18:15:33.388Z,100446.94
2023-05-14T18:20:36.780Z,100452.00
2023-05-14T18:25:41.858Z,100453.41
2023-05-14T18:30:45.463Z,100444.03
2023-05-14T18:35:49.144Z,100441.78
2023-05-14T18:40:54.038Z,100451.75
2023-05-14T18:45:57.574Z,100445.00
2023-05-14T18:51:01.501Z,100457.72
2023-05-14T18:56:06.607Z,100456.25
2023-05-14T19:01:10.241Z,100454.75
2023-05-14T19:06:14.569Z,100455.00
2023-05-14T19:11:19.570Z,100454.44
2023-05-14T19:16:23.243Z,100458.34
2023-05-14T19:21:27.017Z,100457.91
2023-05-14T19:26:32.164Z,100461.81
2023-05-14T19:31:35.733Z,100466.69
2023-05-14T19:36:39.192Z,100469.84
2023-05-14T19:41:44.171Z,100472.19
2023-05-14T19:46:47.739Z,100474.44
2023-05-14T19:51:51.351Z,100473.88
2023-05-14T19:56:56.177Z,100470.50
2023-05-14T20:01:59.694Z,100470.84
2023-05-14T20:07:03.173Z,100468.66
2023-05-14T20:12:09.136Z,100472.66
2023-05-14T20:17:12.774Z,100474.81
2023-05-14T20:22:16.308Z,100478.66
2023-05-14T20:27:21.046Z,100478.13
2023-05-14T20:32:25.219Z,100475.69
2023-05-14T20:37:29.886Z,100482.13
2023-05-14T20:42:36.483Z,100474.47
2023-05-14T20:47:41.674Z,100478.19
2023-05-14T20:52:45.572Z,100481.97
2023-05-14T20:57:50.968Z,100480.31
2023-05-14T21:02:54.691Z,100485.81
2023-05-14T21:07:58.155Z,100489.44
2023-05-14T21:13:03.167Z,100484.28
2023-05-14T21:18:06.867Z,100484.44
2023-05-14T21:23:10.294Z,100481.97
2023-05-14T21:28:15.124Z,100490.00
2023-05-14T21:33:19.559Z,100484.78
2023-05-14T21:38:23.023Z,100488.41
2023-05-14T21:43:28.291Z,100484.88
2023-05-14T21:48:32.086Z,100483.16
2023-05-14T21:53:35.968Z,100484.09
2023-05-14T21:58:41.646Z,100491.28
2023-05-14T22:03:45.091Z,100486.91
2023-05-14T22:08:48.465Z,100486.16
2023-05-14T22:13:53.354Z,100487.22
2023-05-14T22:18:57.107Z,100480.38
2023-05-14T22:24:00.684Z,100485.81
2023-05-14T22:29:05.630Z,100487.69
2023-05-14T22:34:09.550Z,100490.38
2023-05-14T22:39:13.665Z,100494.84
2023-05-14T22:44:18.646Z,100494.94
2023-05-14T22:49:22.332Z,100494.94
2023-05-14T22:54:25.839Z,100491.41
2023-05-14T22:59:30.719Z,100483.56
2023-05-14T23:04:34.287Z,100484.56
2023-05-14T23:09:37.785Z,100495.19
2023-05-14T23:14:42.821Z,100499.59
2023-05-14T23:19:46.292Z,100495.31
2023-05-14T23:24:49.642Z,100505.09
2023-05-14T23:29:54.476Z,100502.47
2023-05-14T23:34:58.181Z,100502.59
2023-05-14T23:40:01.832Z,100506.22
2023-05-14T23:45:10.125Z,100508.09
2023-05-14T23:50:13.754Z,100502.88
2023-05-14T23:55:17.312Z,100506.47
